Time;durP1;ratioP1;P1;durP2;ratioP2;P2;SDS_P1;SDS_P2;PMS_P1;PMS_P2;Temp;Humidity;BMP_temperature;BMP_pressure;BME280_temperature;BME280_humidity;BME280_pressure;Samples;Min_cycle;Max_cycle;Signal;HPM_P1;HPM_P2
2021/12/26 00:01:10;;;;;;;0.43;0.40;;;;;;;-2.68;67.83;101013.97;4973457;28;99378;-43
2021/12/26 00:03:36;;;;;;;1.08;0.40;;;;;;;-2.63;68.47;101024.56;4973179;28;101353;-43
2021/12/26 00:06:06;;;;;;;1.55;0.45;;;;;;;-2.79;68.26;101002.53;4973204;28;96499;-43
2021/12/26 00:08:36;;;;;;;0.00;0.00;;;;;;;-2.62;69.16;101031.63;4973535;28;96725;-43
2021/12/26 00:11:03;;;;;;;0.35;0.15;;;;;;;-2.68;68.58;101026.34;4972897;28;100801;-43
2021/12/26 00:13:29;;;;;;;0.30;0.30;;;;;;;-2.80;68.04;101016.69;4972791;28;101073;-43
2021/12/26 00:15:55;;;;;;;0.10;0.10;;;;;;;-2.82;68.91;101013.16;4972993;28;96686;-43
2021/12/26 00:18:20;;;;;;;0.10;0.10;;;;;;;-2.87;68.51;101022.91;4974303;28;96810;-43
2021/12/26 00:20:47;;;;;;;0.15;0.15;;;;;;;-2.77;68.94;101027.25;4973293;28;126685;-43
2021/12/26 00:23:13;;;;;;;0.00;0.00;;;;;;;-2.85;69.30;101007.88;4972786;28;100844;-43
2021/12/26 00:25:38;;;;;;;0.10;0.10;;;;;;;-2.90;68.38;101004.38;4973803;28;96537;-43
2021/12/26 00:28:04;;;;;;;0.05;0.05;;;;;;;-2.89;68.54;101000.81;4974172;28;96779;-43
2021/12/26 00:30:29;;;;;;;0.00;0.00;;;;;;;-2.93;69.13;100999.06;4974111;28;98088;-43
2021/12/26 00:32:55;;;;;;;0.15;0.15;;;;;;;-2.88;68.84;101015.84;4973889;28;99128;-42
2021/12/26 00:35:21;;;;;;;0.88;0.40;;;;;;;-2.88;69.06;101019.38;4973908;28;105976;-43
2021/12/26 00:37:48;;;;;;;0.13;0.05;;;;;;;-2.94;68.77;101002.59;4974945;28;96784;-43
2021/12/26 00:40:16;;;;;;;0.00;0.00;;;;;;;-3.01;69.20;100989.38;4977267;28;97631;-43
2021/12/26 00:42:42;;;;;;;0.00;0.00;;;;;;;-2.82;69.07;101016.69;4976214;28;99812;-43
2021/12/26 00:45:08;;;;;;;0.03;0.03;;;;;;;-2.86;68.99;101014.94;4975962;28;96694;-43
2021/12/26 00:47:34;;;;;;;0.05;0.05;;;;;;;-3.02;68.97;100984.97;4975904;28;96946;-42
2021/12/26 00:50:00;;;;;;;0.15;0.10;;;;;;;-2.98;69.01;101001.72;4976605;28;99346;-43
2021/12/26 00:52:26;;;;;;;0.05;0.05;;;;;;;-2.89;69.74;101011.41;4976912;28;99233;-43
2021/12/26 00:54:51;;;;;;;0.40;0.35;;;;;;;-2.99;69.74;100995.53;4976021;28;96485;-43
2021/12/26 00:57:17;;;;;;;0.00;0.00;;;;;;;-3.01;69.92;100994.66;4975615;28;98498;-43
2021/12/26 00:59:43;;;;;;;0.10;0.10;;;;;;;-2.89;69.95;101022.00;4976419;28;97404;-43
2021/12/26 01:02:08;;;;;;;0.40;0.17;;;;;;;-3.01;69.89;100991.13;4976949;28;97424;-43
2021/12/26 01:04:34;;;;;;;0.00;0.00;;;;;;;-3.00;69.41;100993.78;4976228;28;116634;-43
2021/12/26 01:06:59;;;;;;;0.60;0.43;;;;;;;-3.01;69.21;100997.31;4977442;28;96844;-43
2021/12/26 01:09:28;;;;;;;0.10;0.10;;;;;;;-2.94;67.97;101014.06;4976555;28;99378;-43
2021/12/26 01:11:59;;;;;;;0.00;0.00;;;;;;;-3.11;69.72;100981.47;4975311;28;100959;-44
2021/12/26 01:14:29;;;;;;;0.05;0.05;;;;;;;-2.99;69.95;100995.53;4975167;28;96627;-43
2021/12/26 01:17:13;;;;;;;0.45;0.45;;;;;;;-3.01;69.42;100997.31;4975403;28;96792;-43
2021/12/26 01:19:44;;;;;;;0.08;0.08;;;;;;;-3.02;69.75;100992.03;4976494;28;99323;-43
2021/12/26 01:22:10;;;;;;;0.53;0.50;;;;;;;-2.99;69.21;101005.25;4975264;28;100832;-43
2021/12/26 01:24:35;;;;;;;0.00;0.00;;;;;;;-3.01;70.08;100996.44;4976676;28;96481;-43
2021/12/26 01:27:02;;;;;;;1.45;0.85;;;;;;;-2.96;70.61;101004.38;4977053;28;96735;-42
2021/12/26 01:29:27;;;;;;;0.28;0.28;;;;;;;-2.94;70.16;101014.06;4975019;28;101025;-43
2021/12/26 01:31:52;;;;;;;0.35;0.35;;;;;;;-2.99;70.66;101005.25;4976665;28;101977;-43
2021/12/26 01:34:17;;;;;;;0.10;0.10;;;;;;;-2.99;70.50;100997.31;4976884;28;96549;-42
2021/12/26 01:36:43;;;;;;;0.08;0.08;;;;;;;-3.10;70.94;100978.81;4976012;28;100204;-42
2021/12/26 01:39:09;;;;;;;0.00;0.00;;;;;;;-2.94;70.34;100992.00;4974702;28;127275;-43
2021/12/26 01:41:42;;;;;;;0.05;0.05;;;;;;;-2.93;70.38;100993.75;4976376;28;97883;-42
2021/12/26 01:44:10;;;;;;;0.00;0.00;;;;;;;-2.94;70.86;100994.66;4976358;28;96609;-43
2021/12/26 01:46:38;;;;;;;0.03;0.03;;;;;;;-2.96;70.76;100994.66;4976497;28;96764;-43
2021/12/26 01:49:12;;;;;;;0.00;0.00;;;;;;;-2.96;70.69;100999.06;4973778;28;103415;-43
2021/12/26 01:51:39;;;;;;;0.20;0.10;;;;;;;-3.15;71.11;100977.94;4975983;28;97934;-43
2021/12/26 01:54:09;;;;;;;0.03;0.03;;;;;;;-3.04;71.14;101002.63;4974907;28;96533;-43
2021/12/26 01:56:35;;;;;;;0.30;0.22;;;;;;;-3.01;71.10;100996.44;4976267;28;96805;-43
2021/12/26 01:59:02;;;;;;;0.28;0.28;;;;;;;-3.01;71.06;100991.13;4974174;28;101252;-43
2021/12/26 02:01:27;;;;;;;0.52;0.35;;;;;;;-2.99;71.29;100995.53;4974648;28;100671;-43
2021/12/26 02:03:53;;;;;;;0.10;0.10;;;;;;;-3.03;71.12;100988.50;4975870;28;96634;-43
2021/12/26 02:06:19;;;;;;;0.10;0.08;;;;;;;-3.04;71.05;100986.72;4976081;28;96875;-43
2021/12/26 02:08:44;;;;;;;0.43;0.43;;;;;;;-3.02;71.87;100994.69;4976025;28;97834;-43
2021/12/26 02:11:10;;;;;;;0.00;0.00;;;;;;;-2.97;71.45;100997.31;4975623;28;98771;-43
2021/12/26 02:13:38;;;;;;;0.00;0.00;;;;;;;-2.97;71.42;100986.72;4976539;28;96649;-43
2021/12/26 02:16:06;;;;;;;0.10;0.10;;;;;;;-2.97;71.31;100977.00;4958772;28;96782;-43
2021/12/26 02:18:31;;;;;;;0.52;0.52;;;;;;;-3.06;71.18;100977.03;4974196;28;100814;-42
2021/12/26 02:23:53;;;;;;;0.20;0.10;;;;;;;-2.99;71.15;100984.06;4974542;28;96681;-43
2021/12/26 02:29:03;;;;;;;0.35;0.15;;;;;;;-3.08;71.64;100968.22;4974092;28;97340;-43
2021/12/26 02:31:28;;;;;;;0.00;0.00;;;;;;;-3.17;71.39;100957.63;4975599;28;97831;-43
2021/12/26 02:33:54;;;;;;;0.08;0.08;;;;;;;-3.18;71.84;100959.41;4975453;28;99547;-42
2021/12/26 02:36:19;;;;;;;0.10;0.10;;;;;;;-3.10;71.74;100964.69;4975876;28;96770;-43
2021/12/26 02:38:44;;;;;;;0.22;0.22;;;;;;;-3.22;71.50;100955.00;4975521;28;97279;-43
2021/12/26 02:41:10;;;;;;;0.10;0.10;;;;;;;-3.18;72.04;100969.13;4975097;28;98634;-42
2021/12/26 02:43:36;;;;;;;0.38;0.10;;;;;;;-3.18;71.59;100964.72;4975457;28;96681;-43
2021/12/26 02:46:06;;;;;;;0.00;0.00;;;;;;;-3.23;71.64;100947.97;4975839;28;96774;-43
2021/12/26 02:48:41;;;;;;;0.22;0.22;;;;;;;-3.05;71.59;100973.47;4973838;28;101028;-42
2021/12/26 02:51:06;;;;;;;0.52;0.52;;;;;;;-3.05;71.35;100963.78;4975185;28;99186;-43
2021/12/26 02:53:33;;;;;;;0.00;0.00;;;;;;;-3.10;71.94;100949.69;4975173;28;96777;-42
2021/12/26 02:56:00;;;;;;;0.00;0.00;;;;;;;-3.09;71.53;100938.19;4973888;28;96821;-43
2021/12/26 02:58:26;;;;;;;0.65;0.65;;;;;;;-3.13;71.50;100946.16;4973426;28;100757;-43
2021/12/26 03:00:55;;;;;;;0.25;0.25;;;;;;;-3.15;71.88;100935.56;4972846;28;101343;-43
2021/12/26 03:03:21;;;;;;;0.20;0.20;;;;;;;-3.08;72.10;100939.94;4974072;28;96722;-43
2021/12/26 03:05:55;;;;;;;0.38;0.38;;;;;;;-3.22;71.64;100918.84;4975165;28;96777;-43
2021/12/26 03:08:20;;;;;;;0.70;0.52;;;;;;;-3.15;72.10;100935.56;4973691;28;100819;-42
2021/12/26 03:10:45;;;;;;;0.55;0.45;;;;;;;-3.15;72.09;100932.91;4973644;28;99605;-43
2021/12/26 03:13:17;;;;;;;0.93;0.65;;;;;;;-3.13;72.05;100924.97;4975293;28;96562;-43
2021/12/26 03:15:43;;;;;;;0.22;0.20;;;;;;;-3.07;72.06;100932.91;4975734;28;96825;-43
2021/12/26 03:18:09;;;;;;;0.10;0.10;;;;;;;-3.19;72.34;100904.69;4973030;28;100712;-43
2021/12/26 03:20:41;;;;;;;0.40;0.40;;;;;;;-3.05;72.36;100924.06;4973523;28;100935;-43
2021/12/26 03:23:08;;;;;;;7.95;1.45;;;;;;;-3.04;71.85;100928.44;4975252;28;96617;-43
2021/12/26 03:25:34;;;;;;;0.20;0.20;;;;;;;-3.16;72.15;100901.16;4973784;28;96837;-43
2021/12/26 03:28:03;;;;;;;0.75;0.30;;;;;;;-3.14;71.58;100896.72;4973310;28;100835;-42
2021/12/26 03:30:29;;;;;;;0.47;0.32;;;;;;;-3.21;72.39;100898.50;4973307;28;100764;-43
2021/12/26 03:32:56;;;;;;;0.38;0.38;;;;;;;-3.11;72.41;100921.41;4973683;28;96529;-43
2021/12/26 03:35:24;;;;;;;0.17;0.17;;;;;;;-3.17;72.28;100912.59;4973893;28;96801;-43
2021/12/26 03:37:50;;;;;;;0.55;0.50;;;;;;;-3.18;71.97;100917.03;4973051;28;100840;-43
2021/12/26 03:40:15;;;;;;;0.00;0.00;;;;;;;-3.17;71.97;100917.91;4974646;28;97273;-43
2021/12/26 03:42:41;;;;;;;0.00;0.00;;;;;;;-3.20;71.95;100926.75;4974565;28;96766;-43
2021/12/26 03:45:08;;;;;;;0.63;0.40;;;;;;;-3.21;71.92;100915.28;4975040;28;96781;-43
2021/12/26 03:47:34;;;;;;;0.00;0.00;;;;;;;-3.21;70.84;100922.34;4974477;28;97957;-43
2021/12/26 03:50:00;;;;;;;0.05;0.05;;;;;;;-3.34;71.36;100908.25;4973052;28;98832;-43
2021/12/26 03:52:26;;;;;;;0.75;0.45;;;;;;;-3.26;71.23;100910.91;4974856;28;96743;-42
2021/12/26 03:54:52;;;;;;;0.30;0.30;;;;;;;-3.20;70.63;100913.50;4975058;28;96770;-43
2021/12/26 03:57:18;;;;;;;0.15;0.15;;;;;;;-3.33;70.46;100896.78;4972818;28;101163;-43
2021/12/26 03:59:44;;;;;;;0.25;0.25;;;;;;;-3.25;70.13;100912.66;4972912;28;100901;-43
2021/12/26 04:02:10;;;;;;;0.80;0.60;;;;;;;-3.38;70.94;100881.78;4974943;28;96656;-43
2021/12/26 04:04:35;;;;;;;2.75;1.80;;;;;;;-3.44;71.44;100867.69;4973208;28;96833;-43
2021/12/26 04:07:00;;;;;;;0.03;0.03;;;;;;;-3.34;70.91;100884.41;4973848;28;97494;-43
2021/12/26 04:09:26;;;;;;;0.47;0.47;;;;;;;-3.34;71.65;100891.50;4974468;28;97810;-43
2021/12/26 04:11:51;;;;;;;0.00;0.00;;;;;;;-3.18;70.64;100916.16;4975118;28;106687;-43
2021/12/26 04:14:17;;;;;;;0.50;0.50;;;;;;;-3.29;71.06;100893.25;4977915;28;96911;-43
2021/12/26 04:16:43;;;;;;;0.20;0.00;;;;;;;-3.19;70.75;100925.88;4977628;28;97432;-43
2021/12/26 04:19:08;;;;;;;0.00;0.00;;;;;;;-3.27;71.23;100901.16;4976120;28;101032;-43
2021/12/26 04:21:34;;;;;;;0.80;0.32;;;;;;;-3.29;70.33;100910.88;4977785;28;96588;-42
2021/12/26 04:24:00;;;;;;;1.08;0.32;;;;;;;-3.35;71.00;100900.34;4978053;28;96835;-42
2021/12/26 04:26:26;;;;;;;1.02;0.70;;;;;;;-3.39;71.28;100888.84;4976081;28;101465;-43
2021/12/26 04:28:51;;;;;;;0.20;0.20;;;;;;;-3.29;71.68;100903.84;4977515;28;97310;-43
2021/12/26 04:31:17;;;;;;;0.45;0.43;;;;;;;-3.34;71.49;100897.66;4977350;28;96625;-43
2021/12/26 04:33:42;;;;;;;0.25;0.25;;;;;;;-3.44;71.85;100885.34;4977953;28;96914;-43
2021/12/26 04:36:08;;;;;;;0.15;0.13;;;;;;;-3.46;71.99;100887.13;4976847;28;99172;-42
2021/12/26 04:38:34;;;;;;;1.65;0.85;;;;;;;-3.41;71.84;100887.97;4975821;28;100667;-43
2021/12/26 04:41:00;;;;;;;0.13;0.13;;;;;;;-3.32;70.76;100897.66;4977903;28;96466;-42
2021/12/26 04:43:26;;;;;;;0.05;0.05;;;;;;;-3.32;71.14;100905.63;4977594;28;96858;-43
2021/12/26 04:45:52;;;;;;;0.40;0.30;;;;;;;-3.46;71.46;100876.53;4975787;28;100780;-43
2021/12/26 04:48:17;;;;;;;4.20;0.45;;;;;;;-3.25;72.13;100896.75;4977899;28;97401;-42
2021/12/26 04:50:43;;;;;;;0.40;0.40;;;;;;;-3.30;71.40;100894.13;4977394;28;96685;-42
2021/12/26 04:53:09;;;;;;;0.15;0.08;;;;;;;-3.43;71.89;100872.13;4977715;28;96597;-43
2021/12/26 04:55:34;;;;;;;2.83;1.15;;;;;;;-3.45;71.63;100880.97;4974826;28;100868;-43
2021/12/26 04:58:00;;;;;;;0.00;0.00;;;;;;;-3.52;71.22;100865.97;4977075;28;97345;-43
2021/12/26 05:00:29;;;;;;;0.03;0.03;;;;;;;-3.53;71.12;100869.50;4976926;28;96486;-43
2021/12/26 05:02:57;;;;;;;0.47;0.20;;;;;;;-3.52;71.58;100869.50;4975970;28;96641;-43
2021/12/26 05:05:26;;;;;;;1.45;1.35;;;;;;;-3.63;70.96;100848.34;4975276;28;101011;-43
2021/12/26 05:07:53;;;;;;;0.15;0.10;;;;;;;-3.42;71.81;100887.09;4975379;28;100794;-43
2021/12/26 05:10:19;;;;;;;0.03;0.03;;;;;;;-3.50;71.41;100869.50;4975927;28;96633;-43
2021/12/26 05:12:45;;;;;;;1.00;0.20;;;;;;;-3.57;70.92;100868.66;4976000;28;96782;-43
2021/12/26 05:15:11;;;;;;;0.47;0.32;;;;;;;-3.55;71.63;100877.47;4975361;28;101331;-43
2021/12/26 05:17:37;;;;;;;0.15;0.15;;;;;;;-3.60;70.92;100863.34;4975359;28;98899;-43
2021/12/26 05:20:04;;;;;;;0.20;0.15;;;;;;;-3.44;71.45;100888.00;4976200;28;96711;-43
2021/12/26 05:22:29;;;;;;;1.08;0.85;;;;;;;-3.41;71.46;100885.34;4975046;28;96885;-43
2021/12/26 05:24:54;;;;;;;0.30;0.15;;;;;;;-3.58;71.24;100866.88;4974717;28;126610;-43
2021/12/26 05:27:20;;;;;;;0.00;0.00;;;;;;;-3.60;71.36;100863.34;4976819;28;97526;-43
2021/12/26 05:29:45;;;;;;;0.00;0.00;;;;;;;-3.42;71.57;100884.47;4976754;28;96753;-43
2021/12/26 05:32:10;;;;;;;0.10;0.10;;;;;;;-3.50;71.42;100859.78;4976979;28;96762;-43
2021/12/26 05:34:35;;;;;;;0.50;0.47;;;;;;;-3.57;72.06;100842.19;4975902;28;108333;-43
2021/12/26 05:37:01;;;;;;;0.00;0.00;;;;;;;-3.45;70.98;100873.00;4975759;28;126996;-43
2021/12/26 05:39:26;;;;;;;0.70;0.20;;;;;;;-3.50;71.28;100864.22;4976880;28;96461;-42
2021/12/26 05:41:51;;;;;;;0.25;0.10;;;;;;;-3.53;71.90;100849.19;4976479;28;96746;-43
2021/12/26 05:44:17;;;;;;;0.10;0.10;;;;;;;-3.53;71.97;100845.69;4974974;28;122830;-43
2021/12/26 05:46:42;;;;;;;0.00;0.00;;;;;;;-3.45;71.49;100855.34;4976319;28;97852;-43
2021/12/26 05:49:08;;;;;;;0.22;0.22;;;;;;;-3.45;71.41;100850.06;4975605;28;111125;-43
2021/12/26 05:51:33;;;;;;;0.13;0.13;;;;;;;-3.42;71.52;100859.75;4976608;28;96778;-42
2021/12/26 05:53:59;;;;;;;1.52;1.40;;;;;;;-3.42;72.27;100855.34;4974730;28;100930;-43
2021/12/26 05:56:25;;;;;;;1.85;1.00;;;;;;;-3.55;72.59;100837.75;4974297;28;101412;-43
2021/12/26 05:58:50;;;;;;;0.22;0.22;;;;;;;-3.58;72.43;100834.22;4976433;28;96500;-43
2021/12/26 06:01:15;;;;;;;1.05;0.98;;;;;;;-3.44;72.24;100843.00;4975724;28;105851;-43
2021/12/26 06:03:41;;;;;;;0.50;0.50;;;;;;;-3.53;72.54;100832.44;4974833;28;124951;-43
2021/12/26 06:06:06;;;;;;;0.00;0.00;;;;;;;-3.48;71.97;100852.72;4976204;28;97592;-43
2021/12/26 06:08:32;;;;;;;1.77;0.25;;;;;;;-3.52;72.26;100845.69;4976149;28;96605;-43
2021/12/26 06:10:58;;;;;;;0.20;0.20;;;;;;;-3.53;71.87;100850.97;4976320;28;96739;-43
2021/12/26 06:13:23;;;;;;;0.85;0.82;;;;;;;-3.72;72.22;100818.41;4975546;28;98949;-43
2021/12/26 06:15:48;;;;;;;0.38;0.32;;;;;;;-3.56;72.46;100851.00;4975579;28;114502;-42
2021/12/26 06:18:14;;;;;;;0.05;0.05;;;;;;;-3.55;72.15;100844.78;4976114;28;96730;-43
2021/12/26 06:20:39;;;;;;;0.90;0.90;;;;;;;-3.46;72.72;100860.66;4975929;28;96781;-43
2021/12/26 06:23:05;;;;;;;0.10;0.10;;;;;;;-3.68;71.70;100818.38;4975786;28;97605;-43
2021/12/26 06:25:30;;;;;;;2.65;1.25;;;;;;;-3.64;71.32;100835.16;4976051;28;97752;-42
2021/12/26 06:27:55;;;;;;;3.20;0.65;;;;;;;-3.56;72.45;100853.63;4975835;28;96483;-43
2021/12/26 06:30:21;;;;;;;0.03;0.03;;;;;;;-3.66;72.49;100836.91;4975738;28;96819;-42
2021/12/26 06:32:47;;;;;;;0.10;0.10;;;;;;;-3.54;72.38;100852.75;4975485;28;97369;-43
2021/12/26 06:35:12;;;;;;;0.35;0.10;;;;;;;-3.58;71.35;100853.63;4974995;28;98602;-43
2021/12/26 06:37:38;;;;;;;0.00;0.00;;;;;;;-3.68;72.01;100852.78;4975886;28;96692;-43
2021/12/26 06:40:06;;;;;;;1.00;0.52;;;;;;;-3.65;71.98;100854.53;4975937;28;96742;-43
2021/12/26 06:42:33;;;;;;;1.48;0.82;;;;;;;-3.75;71.96;100831.66;4973663;28;103576;-43
2021/12/26 06:44:58;;;;;;;0.52;0.50;;;;;;;-3.72;72.72;100845.75;4973982;28;100897;-43
2021/12/26 06:47:25;;;;;;;0.00;0.00;;;;;;;-3.71;72.51;100839.56;4975480;28;96629;-43
2021/12/26 06:49:50;;;;;;;0.10;0.10;;;;;;;-3.79;72.08;100827.25;4976045;28;96772;-42
2021/12/26 06:52:15;;;;;;;0.00;0.00;;;;;;;-3.76;72.40;100827.25;4975384;28;98051;-43
2021/12/26 06:54:41;;;;;;;0.00;0.00;;;;;;;-3.83;71.42;100812.28;4975102;28;99791;-43
2021/12/26 06:57:07;;;;;;;0.10;0.10;;;;;;;-3.71;72.02;100833.41;4974648;28;96903;-43
2021/12/26 06:59:33;;;;;;;5.05;0.35;;;;;;;-3.84;71.36;100806.09;4973920;28;96644;-42
2021/12/26 07:01:58;;;;;;;0.20;0.20;;;;;;;-3.69;72.03;100839.56;4973843;28;100632;-43
2021/12/26 07:04:24;;;;;;;1.92;1.40;;;;;;;-3.65;71.91;100842.22;4975074;28;97372;-43
2021/12/26 07:06:49;;;;;;;0.98;0.57;;;;;;;-3.66;72.25;100835.13;4974502;28;116836;-43
2021/12/26 07:09:14;;;;;;;0.70;0.65;;;;;;;-3.61;71.90;100834.25;4975190;28;96844;-42
2021/12/26 07:11:41;;;;;;;0.10;0.00;;;;;;;-3.81;72.06;100807.84;4974488;28;112459;-43
2021/12/26 07:14:06;;;;;;;0.68;0.47;;;;;;;-3.60;72.21;100836.00;4975258;28;99263;-42
2021/12/26 07:16:31;;;;;;;1.70;0.30;;;;;;;-3.65;72.48;100830.72;4975408;28;96430;-43
2021/12/26 07:18:57;;;;;;;0.63;0.17;;;;;;;-3.74;71.91;100812.22;4974688;28;104572;-43
2021/12/26 07:21:22;;;;;;;0.00;0.00;;;;;;;-3.76;72.07;100812.25;4974533;28;97939;-43
2021/12/26 07:23:47;;;;;;;0.00;0.00;;;;;;;-3.66;72.39;100839.56;4974735;28;103115;-43
2021/12/26 07:26:13;;;;;;;0.00;0.00;;;;;;;-3.69;72.24;100843.09;4975231;28;96706;-42
2021/12/26 07:28:38;;;;;;;0.20;0.20;;;;;;;-3.74;72.51;100828.09;4975199;28;96636;-43
2021/12/26 07:31:04;;;;;;;0.30;0.20;;;;;;;-3.74;72.64;100830.75;4974822;28;97468;-42
2021/12/26 07:33:31;;;;;;;0.10;0.10;;;;;;;-3.81;72.83;100818.41;4974704;28;97404;-43
2021/12/26 07:35:56;;;;;;;0.20;0.20;;;;;;;-3.86;72.27;100816.69;4973640;28;96651;-42
2021/12/26 07:38:21;;;;;;;0.55;0.47;;;;;;;-3.95;72.67;100811.44;4974957;28;98117;-43
2021/12/26 07:40:50;;;;;;;1.50;1.15;;;;;;;-3.82;72.37;100819.31;4974651;28;98091;-43
2021/12/26 07:43:15;;;;;;;0.20;0.20;;;;;;;-3.79;73.05;100821.94;4974371;28;99258;-42
2021/12/26 07:45:40;;;;;;;0.10;0.10;;;;;;;-3.68;72.27;100844.84;4974352;28;96446;-43
2021/12/26 07:48:06;;;;;;;0.85;0.40;;;;;;;-3.75;72.65;100826.34;4977567;28;96756;-43
2021/12/26 07:50:31;;;;;;;0.13;0.13;;;;;;;-3.67;72.43;100857.22;4977487;28;121166;-43
2021/12/26 07:53:03;;;;;;;0.03;0.03;;;;;;;-3.79;72.88;100833.44;4978129;28;97110;-43
2021/12/26 07:55:28;;;;;;;0.43;0.43;;;;;;;-3.66;72.35;100839.56;4978491;28;96876;-42
2021/12/26 07:57:53;;;;;;;0.05;0.05;;;;;;;-3.79;72.67;100825.50;4978275;28;96790;-43
2021/12/26 08:00:20;;;;;;;0.30;0.30;;;;;;;-3.70;72.77;100829.84;4977298;28;98848;-43
2021/12/26 08:02:45;;;;;;;0.00;0.00;;;;;;;-3.58;72.20;100848.34;4976710;28;100714;-43
2021/12/26 08:05:11;;;;;;;0.10;0.10;;;;;;;-3.62;72.59;100843.97;4978360;28;96562;-43
2021/12/26 08:07:36;;;;;;;0.17;0.17;;;;;;;-3.70;72.70;100832.50;4978455;28;96850;-43
2021/12/26 08:10:03;;;;;;;0.00;0.00;;;;;;;-3.62;72.56;100846.59;4975896;28;100723;-43
2021/12/26 08:12:29;;;;;;;0.00;0.00;;;;;;;-3.61;72.67;100850.13;4976164;28;99428;-43
2021/12/26 08:14:54;;;;;;;2.10;0.52;;;;;;;-3.62;72.97;100854.56;4977511;28;96528;-42
2021/12/26 08:17:20;;;;;;;0.85;0.65;;;;;;;-3.67;72.77;100837.78;4977704;28;96516;-42
2021/12/26 08:19:45;;;;;;;0.55;0.50;;;;;;;-3.55;72.58;100851.00;4976463;28;126800;-42
2021/12/26 08:22:10;;;;;;;0.00;0.00;;;;;;;-3.59;72.95;100836.00;4977680;28;97911;-43
2021/12/26 08:24:36;;;;;;;0.30;0.10;;;;;;;-3.50;71.82;100857.16;4978033;28;96543;-43
2021/12/26 08:27:01;;;;;;;0.43;0.43;;;;;;;-3.56;72.16;100853.63;4977712;28;101112;-43
2021/12/26 08:29:27;;;;;;;0.00;0.00;;;;;;;-3.58;72.27;100845.69;4977761;28;97338;-43
2021/12/26 08:31:56;;;;;;;0.00;0.00;;;;;;;-3.54;72.15;100852.75;4977100;28;99848;-43
2021/12/26 08:34:23;;;;;;;0.08;0.05;;;;;;;-3.58;72.58;100847.47;4975804;28;96520;-43
2021/12/26 08:36:50;;;;;;;0.00;0.00;;;;;;;-3.52;72.26;100860.69;4976137;28;96978;-43
2021/12/26 08:39:15;;;;;;;0.55;0.52;;;;;;;-3.56;71.87;100849.22;4975813;28;100646;-43
2021/12/26 08:41:41;;;;;;;0.00;0.00;;;;;;;-3.56;72.29;100851.88;4977151;28;97999;-43
2021/12/26 08:44:06;;;;;;;0.00;0.00;;;;;;;-3.58;72.36;100850.09;4977047;28;96863;-42
2021/12/26 08:46:33;;;;;;;0.00;0.00;;;;;;;-3.49;71.91;100866.84;4977273;28;96842;-43
2021/12/26 08:48:59;;;;;;;0.28;0.28;;;;;;;-3.55;71.83;100851.00;4977057;28;97888;-43
2021/12/26 08:51:24;;;;;;;0.10;0.10;;;;;;;-3.59;72.64;100829.84;4977468;28;97927;-43
2021/12/26 08:53:49;;;;;;;0.00;0.00;;;;;;;-3.42;72.49;100855.34;4976468;28;116875;-43
2021/12/26 08:56:14;;;;;;;0.22;0.20;;;;;;;-3.46;72.63;100837.69;4976327;28;109904;-43
2021/12/26 08:58:40;;;;;;;0.32;0.30;;;;;;;-3.38;72.45;100842.06;4975138;28;119623;-43
2021/12/26 09:01:05;;;;;;;0.03;0.03;;;;;;;-3.46;72.52;100832.41;4975837;28;123855;-43
2021/12/26 09:03:30;;;;;;;0.82;0.50;;;;;;;-3.48;72.77;100834.19;4977237;28;96573;-43
2021/12/26 09:05:56;;;;;;;0.00;0.00;;;;;;;-3.29;72.53;100842.03;4977042;28;96842;-43
2021/12/26 09:08:22;;;;;;;0.03;0.03;;;;;;;-3.35;72.56;100839.44;4976609;28;99275;-43
2021/12/26 09:10:47;;;;;;;0.15;0.15;;;;;;;-3.38;72.40;100819.16;4976589;28;99315;-43
2021/12/26 09:13:12;;;;;;;0.00;0.00;;;;;;;-3.19;72.76;100843.78;4976857;28;96650;-43
2021/12/26 09:15:38;;;;;;;0.10;0.10;;;;;;;-3.28;72.28;100828.78;4977563;28;96725;-43
2021/12/26 09:18:03;;;;;;;1.85;1.05;;;;;;;-3.24;72.76;100814.66;4976509;28;97147;-43
2021/12/26 09:20:29;;;;;;;0.13;0.10;;;;;;;-3.07;72.79;100838.41;4976625;28;97810;-42
2021/12/26 09:22:55;;;;;;;0.00;0.00;;;;;;;-3.16;72.33;100825.19;4975109;28;96584;-42
2021/12/26 09:25:21;;;;;;;2.90;0.63;;;;;;;-3.17;72.08;100804.00;4976773;28;96866;-43
2021/12/26 09:27:46;;;;;;;0.50;0.50;;;;;;;-3.08;72.29;100826.03;4976348;28;97871;-43
2021/12/26 09:30:14;;;;;;;0.00;0.00;;;;;;;-3.11;72.60;100812.81;4976455;28;107979;-43
2021/12/26 09:32:40;;;;;;;0.15;0.15;;;;;;;-2.96;72.53;100830.38;4975335;28;96722;-43
2021/12/26 09:35:07;;;;;;;1.98;0.40;;;;;;;-2.95;72.29;100820.66;4975347;28;96908;-42
2021/12/26 09:37:32;;;;;;;1.05;0.68;;;;;;;-2.97;72.67;100814.50;4974849;28;102412;-42
2021/12/26 09:39:58;;;;;;;0.75;0.10;;;;;;;-2.86;72.14;100825.88;4976773;28;97310;-43
2021/12/26 09:42:24;;;;;;;0.17;0.10;;;;;;;-2.92;72.14;100812.69;4975004;28;96844;-43
2021/12/26 09:44:50;;;;;;;0.00;0.00;;;;;;;-2.79;72.31;100833.81;4974785;28;96774;-42
2021/12/26 09:47:15;;;;;;;0.20;0.10;;;;;;;-2.85;72.25;100817.06;4975710;28;97479;-43
2021/12/26 09:49:41;;;;;;;1.05;0.82;;;;;;;-2.89;72.23;100796.75;4975971;28;99303;-43
2021/12/26 09:52:07;;;;;;;0.32;0.32;;;;;;;-2.77;72.31;100812.56;4976543;28;96590;-43
2021/12/26 09:54:32;;;;;;;0.38;0.30;;;;;;;-2.68;72.41;100822.22;4974972;28;96850;-42
2021/12/26 09:56:58;;;;;;;2.20;0.68;;;;;;;-2.59;72.23;100830.97;4975714;28;97933;-43
2021/12/26 09:59:27;;;;;;;0.05;0.05;;;;;;;-2.70;72.57;100814.28;4975645;28;97893;-43
2021/12/26 10:01:55;;;;;;;0.00;0.00;;;;;;;-2.53;72.50;100829.16;4974960;28;97167;-43
2021/12/26 10:04:31;;;;;;;0.15;0.15;;;;;;;-2.56;72.39;100824.78;4976631;28;96835;-42
2021/12/26 10:07:00;;;;;;;0.00;0.00;;;;;;;-2.76;71.94;100785.19;4974535;28;100017;-43
2021/12/26 10:09:26;;;;;;;0.00;0.00;;;;;;;-2.54;72.53;100811.50;4973735;28;101088;-43
2021/12/26 10:11:54;;;;;;;2.92;0.47;;;;;;;-2.49;72.70;100807.06;4974081;28;96565;-42
2021/12/26 10:14:25;;;;;;;0.32;0.13;;;;;;;-2.45;72.38;100808.78;4974672;28;96824;-43
2021/12/26 10:16:55;;;;;;;0.17;0.15;;;;;;;-2.51;72.64;100787.63;4974262;28;101144;-43
2021/12/26 10:19:21;;;;;;;0.10;0.10;;;;;;;-2.36;72.72;100808.69;4974041;28;100777;-43
2021/12/26 10:21:47;;;;;;;0.00;0.00;;;;;;;-2.36;72.27;100788.38;4974603;28;96654;-43
2021/12/26 10:24:17;;;;;;;0.00;0.00;;;;;;;-2.31;72.81;100788.31;4974296;28;97796;-42
2021/12/26 10:26:45;;;;;;;3.03;0.55;;;;;;;-2.30;72.45;100776.81;4975501;28;98188;-42
2021/12/26 10:29:12;;;;;;;0.95;0.70;;;;;;;-2.22;72.81;100782.91;4975648;28;99170;-43
2021/12/26 10:31:44;;;;;;;0.32;0.32;;;;;;;-2.18;72.70;100781.09;4975823;28;96465;-43
2021/12/26 10:34:28;;;;;;;1.83;1.00;;;;;;;-2.17;72.82;100758.97;4974509;28;96742;-43
2021/12/26 10:36:55;;;;;;;0.82;0.68;;;;;;;-2.09;72.96;100764.22;4973619;28;100864;-42
2021/12/26 10:39:24;;;;;;;0.35;0.20;;;;;;;-2.14;72.87;100746.56;4973879;28;99805;-42
2021/12/26 10:42:02;;;;;;;0.77;0.75;;;;;;;-1.95;72.95;100767.59;4974222;28;96626;-43
2021/12/26 10:44:32;;;;;;;0.05;0.03;;;;;;;-1.94;73.07;100761.38;4974178;28;96763;-43
2021/12/26 10:47:13;;;;;;;0.38;0.38;;;;;;;-2.01;73.27;100741.13;4975246;28;99000;-43
2021/12/26 10:49:48;;;;;;;0.15;0.15;;;;;;;-1.86;73.27;100756.88;4973844;28;101019;-43
2021/12/26 10:52:40;;;;;;;0.00;0.00;;;;;;;-1.82;73.36;100761.22;4974207;28;96652;-43
2021/12/26 10:55:06;;;;;;;0.35;0.30;;;;;;;-1.74;73.39;100753.16;4976003;28;96525;-43
2021/12/26 10:57:39;;;;;;;2.22;0.70;;;;;;;-1.72;73.38;100764.63;4974450;28;99274;-43
2021/12/26 11:00:07;;;;;;;0.98;0.90;;;;;;;-1.65;73.59;100773.41;4973395;28;101252;-42
2021/12/26 11:02:34;;;;;;;0.00;0.00;;;;;;;-1.76;73.45;100739.06;4974836;28;96569;-43
2021/12/26 11:05:07;;;;;;;0.20;0.20;;;;;;;-1.64;73.54;100759.25;4975242;28;96816;-43
2021/12/26 11:07:41;;;;;;;0.00;0.00;;;;;;;-1.59;74.06;100765.38;4973687;28;102391;-42
2021/12/26 11:10:29;;;;;;;0.38;0.22;;;;;;;-1.56;73.75;100755.59;4974589;28;97817;-43
2021/12/26 11:12:57;;;;;;;0.00;0.00;;;;;;;-1.59;73.84;100742.34;4974877;28;96612;-43
2021/12/26 11:15:25;;;;;;;0.00;0.00;;;;;;;-1.44;73.62;100756.31;4973990;28;96779;-43
2021/12/26 11:18:04;;;;;;;0.13;0.10;;;;;;;-1.57;73.71;100713.13;4973412;28;100860;-43
2021/12/26 11:20:41;;;;;;;0.38;0.38;;;;;;;-1.38;73.79;100733.22;4973780;28;100762;-42
2021/12/26 11:23:31;;;;;;;0.50;0.32;;;;;;;-1.26;73.91;100739.22;4973707;28;96592;-43
2021/12/26 11:26:15;;;;;;;0.85;0.57;;;;;;;-1.39;73.85;100718.16;4975372;28;96541;-42